Time;durP1;ratioP1;P1;durP2;ratioP2;P2;SDS_P1;SDS_P2;PMS_P1;PMS_P2;Temp;Humidity;BMP_temperature;BMP_pressure;BME280_temperature;BME280_humidity;BME280_pressure;Samples;Min_cycle;Max_cycle;Signal;HPM_P1;HPM_P2
2022/08/02 00:00:47;;;;;;;4.18;3.00;;;;;;;;;;4233127;33;20208;-69
2022/08/02 00:03:13;;;;;;;4.18;2.92;;;;;;;;;;4232893;33;20117;-69
2022/08/02 00:34:06;;;;;;;3.60;3.20;;;;;;;;;;4992320;27;20049;-67
2022/08/02 00:36:32;;;;;;;6.43;3.00;;;;;;;;;;4237390;33;20129;-67
2022/08/02 00:38:59;;;;;;;5.82;2.80;;;;;;;;;;4232668;33;20538;-67
2022/08/02 00:41:25;;;;;;;3.87;3.05;;;;;;;;;;4232492;33;20211;-67
2022/08/02 00:43:51;;;;;;;3.67;3.28;;;;;;;;;;4232810;33;20101;-65
2022/08/02 00:46:18;;;;;;;3.30;3.00;;;;;;;;;;4232871;33;20109;-66
2022/08/02 00:48:45;;;;;;;5.85;3.25;;;;;;;;;;4232842;33;20177;-68
2022/08/02 00:51:12;;;;;;;5.53;2.78;;;;;;;;;;4231880;33;20120;-67
2022/08/02 00:53:38;;;;;;;5.10;3.15;;;;;;;;;;4219392;33;20533;-67
2022/08/02 00:56:04;;;;;;;3.40;3.03;;;;;;;;;;4232574;33;20101;-67
2022/08/02 00:58:30;;;;;;;3.47;3.17;;;;;;;;;;4232468;33;20124;-65
2022/08/02 01:00:59;;;;;;;7.65;3.22;;;;;;;;;;4232280;33;20110;-67
2022/08/02 01:03:25;;;;;;;7.15;3.25;;;;;;;;;;4232052;33;20205;-67
2022/08/02 01:05:51;;;;;;;3.12;2.83;;;;;;;;;;4232469;33;20201;-66
2022/08/02 01:08:17;;;;;;;5.87;3.08;;;;;;;;;;4232277;33;20553;-66
2022/08/02 01:10:44;;;;;;;5.05;2.65;;;;;;;;;;4232295;33;20100;-66
2022/08/02 01:13:10;;;;;;;4.00;3.10;;;;;;;;;;4219518;33;20125;-66
2022/08/02 01:15:40;;;;;;;4.40;2.80;;;;;;;;;;4232296;33;20438;-66
2022/08/02 01:18:29;;;;;;;9.15;3.87;;;;;;;;;;4207624;33;20509;-66
2022/08/02 01:21:13;;;;;;;5.70;3.33;;;;;;;;;;4219133;33;20117;-67
2022/08/02 01:24:10;;;;;;;3.22;2.47;;;;;;;;;;4232408;33;20120;-69
2022/08/02 01:26:55;;;;;;;4.80;3.25;;;;;;;;;;4232298;33;20115;-69
2022/08/02 01:29:30;;;;;;;4.45;3.30;;;;;;;;;;4219361;33;20586;-69
2022/08/02 01:31:59;;;;;;;3.53;2.90;;;;;;;;;;4232057;33;20129;-70
2022/08/02 01:34:33;;;;;;;5.82;3.28;;;;;;;;;;4232083;33;20124;-69
2022/08/02 01:37:52;;;;;;;5.30;3.40;;;;;;;;;;4219317;33;20120;-69
2022/08/02 01:40:30;;;;;;;6.43;3.25;;;;;;;;;;4201821;34;20121;-69
2022/08/02 01:42:57;;;;;;;12.63;2.97;;;;;;;;;;4218821;33;20108;-69
2022/08/02 01:45:29;;;;;;;7.32;3.12;;;;;;;;;;4207304;33;20141;-68
2022/08/02 01:47:56;;;;;;;6.37;3.55;;;;;;;;;;4218990;33;20485;-68
2022/08/02 01:50:33;;;;;;;6.82;3.10;;;;;;;;;;4218585;33;20563;-68
2022/08/02 01:53:04;;;;;;;4.47;3.28;;;;;;;;;;4207385;33;20180;-67
2022/08/02 01:55:50;;;;;;;7.10;3.50;;;;;;;;;;4219083;33;20199;-67
2022/08/02 01:58:18;;;;;;;5.93;3.65;;;;;;;;;;4206922;33;20204;-68
2022/08/02 02:00:45;;;;;;;6.70;3.22;;;;;;;;;;4218858;33;20125;-67
2022/08/02 02:03:23;;;;;;;3.60;3.12;;;;;;;;;;4231729;33;20480;-67
2022/08/02 02:05:51;;;;;;;3.95;2.95;;;;;;;;;;4231638;33;20101;-67
2022/08/02 02:08:22;;;;;;;12.55;4.12;;;;;;;;;;4218775;33;20109;-67
2022/08/02 02:10:49;;;;;;;4.90;3.17;;;;;;;;;;4218836;33;20457;-66
2022/08/02 02:13:18;;;;;;;4.00;3.35;;;;;;;;;;4231922;33;20110;-66
2022/08/02 02:15:47;;;;;;;8.95;3.45;;;;;;;;;;4217941;33;20836;-66
2022/08/02 02:18:21;;;;;;;5.53;3.03;;;;;;;;;;4206632;33;20105;-67
2022/08/02 02:20:47;;;;;;;7.47;3.28;;;;;;;;;;4218503;33;20569;-67
2022/08/02 02:23:13;;;;;;;10.05;3.30;;;;;;;;;;4231487;33;20152;-67
2022/08/02 02:25:43;;;;;;;3.62;2.70;;;;;;;;;;4218586;33;20172;-67
2022/08/02 02:28:23;;;;;;;8.55;3.37;;;;;;;;;;4207210;33;20086;-67
2022/08/02 02:30:52;;;;;;;5.57;3.20;;;;;;;;;;4218542;33;20093;-67
2022/08/02 02:33:19;;;;;;;6.15;3.55;;;;;;;;;;4218731;33;20494;-68
2022/08/02 02:35:47;;;;;;;4.82;3.00;;;;;;;;;;4218287;33;20109;-75
2022/08/02 02:38:13;;;;;;;4.68;3.28;;;;;;;;;;4218592;33;20128;-68
2022/08/02 02:40:40;;;;;;;8.63;3.37;;;;;;;;;;4231348;33;20521;-67
2022/08/02 02:43:07;;;;;;;4.10;3.58;;;;;;;;;;4219233;33;20180;-68
2022/08/02 02:45:34;;;;;;;5.32;3.42;;;;;;;;;;4209370;33;20163;-65
2022/08/02 02:48:00;;;;;;;4.75;3.22;;;;;;;;;;4220863;33;20430;-64
2022/08/02 02:50:27;;;;;;;3.75;3.17;;;;;;;;;;4233444;33;20517;-64
2022/08/02 02:52:53;;;;;;;6.85;3.33;;;;;;;;;;4220490;33;20137;-64
2022/08/02 02:55:20;;;;;;;5.82;3.28;;;;;;;;;;4233414;33;20485;-64
2022/08/02 02:57:47;;;;;;;4.07;3.45;;;;;;;;;;4233809;33;20112;-64
2022/08/02 03:00:14;;;;;;;3.95;2.95;;;;;;;;;;4233861;33;20155;-64
2022/08/02 03:02:42;;;;;;;4.47;3.25;;;;;;;;;;4233694;33;20100;-64
2022/08/02 03:05:09;;;;;;;5.93;3.15;;;;;;;;;;4220383;33;20113;-64
2022/08/02 03:07:35;;;;;;;5.75;3.05;;;;;;;;;;4233427;33;20113;-64
2022/08/02 03:10:05;;;;;;;6.18;2.97;;;;;;;;;;4220540;33;20085;-64
2022/08/02 03:12:34;;;;;;;4.25;3.42;;;;;;;;;;4220291;33;20112;-64
2022/08/02 03:15:04;;;;;;;3.92;2.83;;;;;;;;;;4233236;33;20111;-64
2022/08/02 03:17:43;;;;;;;3.37;3.08;;;;;;;;;;4233264;33;20106;-64
2022/08/02 03:20:12;;;;;;;6.03;2.90;;;;;;;;;;4220429;33;20113;-64
2022/08/02 03:22:39;;;;;;;3.60;2.65;;;;;;;;;;4233326;33;20097;-63
2022/08/02 03:25:06;;;;;;;9.48;3.47;;;;;;;;;;4233388;33;20551;-64
2022/08/02 03:27:32;;;;;;;6.62;3.17;;;;;;;;;;4220361;33;20442;-64
2022/08/02 03:29:58;;;;;;;4.35;3.03;;;;;;;;;;4233102;33;20123;-64
2022/08/02 03:32:24;;;;;;;4.95;3.00;;;;;;;;;;4233252;33;20136;-64
2022/08/02 03:34:51;;;;;;;3.78;3.20;;;;;;;;;;4220290;33;20567;-64
2022/08/02 03:37:17;;;;;;;5.22;3.05;;;;;;;;;;4220162;33;20104;-64
2022/08/02 03:39:43;;;;;;;6.22;3.33;;;;;;;;;;4208745;33;20117;-64
2022/08/02 03:42:10;;;;;;;5.03;2.90;;;;;;;;;;4220262;33;20101;-64
2022/08/02 03:44:38;;;;;;;7.37;3.35;;;;;;;;;;4233214;33;20127;-64
2022/08/02 03:47:05;;;;;;;4.28;3.20;;;;;;;;;;4220454;33;20217;-64
2022/08/02 03:49:32;;;;;;;4.68;3.17;;;;;;;;;;4220080;33;20135;-64
2022/08/02 03:51:58;;;;;;;6.78;3.17;;;;;;;;;;4220126;33;20124;-64
2022/08/02 03:54:24;;;;;;;8.40;3.40;;;;;;;;;;4219370;33;20100;-64
2022/08/02 03:56:51;;;;;;;7.20;3.60;;;;;;;;;;4233186;33;20109;-64
2022/08/02 03:59:17;;;;;;;4.78;3.25;;;;;;;;;;4219977;33;20094;-64
2022/08/02 04:01:43;;;;;;;7.43;3.30;;;;;;;;;;4233075;33;20093;-64
2022/08/02 04:04:09;;;;;;;3.90;3.17;;;;;;;;;;4232857;33;20208;-66
2022/08/02 04:06:35;;;;;;;6.68;3.87;;;;;;;;;;4233083;33;20113;-66
2022/08/02 04:09:01;;;;;;;7.62;3.53;;;;;;;;;;4232943;33;20113;-65
2022/08/02 04:11:30;;;;;;;3.40;2.97;;;;;;;;;;4232868;33;20121;-65
2022/08/02 04:14:05;;;;;;;6.78;3.85;;;;;;;;;;4232810;33;20213;-64
2022/08/02 04:16:49;;;;;;;8.43;3.22;;;;;;;;;;4232831;33;20219;-66
2022/08/02 04:19:28;;;;;;;6.53;3.50;;;;;;;;;;4219161;33;20536;-66
2022/08/02 04:21:55;;;;;;;4.43;3.67;;;;;;;;;;4232735;33;20504;-66
2022/08/02 04:24:32;;;;;;;4.97;3.78;;;;;;;;;;4233027;33;20121;-66
2022/08/02 04:26:59;;;;;;;5.35;3.90;;;;;;;;;;4219932;33;20139;-66
2022/08/02 04:29:25;;;;;;;5.20;3.90;;;;;;;;;;4219637;33;20102;-75
2022/08/02 04:31:53;;;;;;;4.35;3.75;;;;;;;;;;4219824;33;20192;-65
2022/08/02 04:34:19;;;;;;;4.30;3.87;;;;;;;;;;4219904;33;20263;-66
2022/08/02 04:36:46;;;;;;;4.00;3.60;;;;;;;;;;4220086;33;20144;-67
2022/08/02 04:39:14;;;;;;;4.50;3.67;;;;;;;;;;4219663;33;20212;-62
2022/08/02 04:41:41;;;;;;;2.47;2.12;;;;;;;;;;4232721;33;20093;-63
2022/08/02 04:44:07;;;;;;;8.75;4.20;;;;;;;;;;4232628;33;20921;-69
2022/08/02 04:46:35;;;;;;;6.65;4.72;;;;;;;;;;4219442;33;20500;-65
2022/08/02 04:49:01;;;;;;;8.48;4.28;;;;;;;;;;4232573;33;20124;-64
2022/08/02 04:51:27;;;;;;;5.65;4.20;;;;;;;;;;4232518;33;20117;-66
2022/08/02 04:53:53;;;;;;;8.85;4.60;;;;;;;;;;4219367;33;20119;-65
2022/08/02 04:56:19;;;;;;;6.05;4.40;;;;;;;;;;4232596;33;20101;-66
2022/08/02 04:58:45;;;;;;;6.32;4.80;;;;;;;;;;4219446;33;20101;-65
2022/08/02 05:01:11;;;;;;;5.55;4.60;;;;;;;;;;4219511;33;20529;-65
2022/08/02 05:03:37;;;;;;;8.35;4.55;;;;;;;;;;4232457;33;20453;-65
2022/08/02 05:06:03;;;;;;;6.28;4.57;;;;;;;;;;4232173;33;20125;-66
2022/08/02 05:08:29;;;;;;;7.55;3.95;;;;;;;;;;4232338;33;20223;-66
2022/08/02 05:10:55;;;;;;;9.10;4.75;;;;;;;;;;4232283;33;20536;-66
2022/08/02 05:13:21;;;;;;;8.70;4.93;;;;;;;;;;4232356;33;20131;-65
2022/08/02 05:15:49;;;;;;;7.60;4.75;;;;;;;;;;4232010;33;20539;-65
2022/08/02 05:18:15;;;;;;;7.35;4.87;;;;;;;;;;4232419;33;20128;-65
2022/08/02 05:20:41;;;;;;;8.05;5.10;;;;;;;;;;4232254;33;20608;-65
2022/08/02 05:23:07;;;;;;;11.90;4.65;;;;;;;;;;4232176;33;20116;-66
2022/08/02 05:25:33;;;;;;;6.75;4.90;;;;;;;;;;4207617;33;20115;-65
2022/08/02 05:27:59;;;;;;;6.78;4.95;;;;;;;;;;4232131;33;20442;-66
2022/08/02 05:30:25;;;;;;;7.22;4.90;;;;;;;;;;4232320;33;20107;-66
2022/08/02 05:32:53;;;;;;;9.10;5.37;;;;;;;;;;4232047;33;20180;-66
2022/08/02 05:35:22;;;;;;;11.88;5.22;;;;;;;;;;4232156;33;20517;-66
2022/08/02 05:37:48;;;;;;;7.85;5.85;;;;;;;;;;4232035;33;20176;-65
2022/08/02 05:40:15;;;;;;;7.25;5.65;;;;;;;;;;4232203;33;20541;-66
2022/08/02 05:42:41;;;;;;;10.55;5.12;;;;;;;;;;4231875;33;20120;-66
2022/08/02 05:45:07;;;;;;;7.95;5.57;;;;;;;;;;4232201;33;20135;-65
2022/08/02 05:47:33;;;;;;;12.65;6.72;;;;;;;;;;4218916;33;20567;-65
2022/08/02 05:49:59;;;;;;;8.07;4.32;;;;;;;;;;4219030;33;20474;-65
2022/08/02 05:52:27;;;;;;;5.55;4.85;;;;;;;;;;4231922;33;20117;-66
2022/08/02 05:55:07;;;;;;;6.55;4.50;;;;;;;;;;4218824;33;20488;-66
2022/08/02 05:57:51;;;;;;;7.62;5.05;;;;;;;;;;4219009;33;20128;-66
2022/08/02 06:00:17;;;;;;;10.18;5.12;;;;;;;;;;4218863;33;20112;-66
2022/08/02 06:03:15;;;;;;;10.30;5.75;;;;;;;;;;4231645;33;20125;-66
2022/08/02 06:05:52;;;;;;;5.97;4.47;;;;;;;;;;4231809;33;20101;-66
2022/08/02 06:08:20;;;;;;;7.95;5.05;;;;;;;;;;4231739;33;20129;-63
2022/08/02 06:10:47;;;;;;;7.43;4.30;;;;;;;;;;4231952;33;20101;-65
2022/08/02 06:13:15;;;;;;;8.55;5.62;;;;;;;;;;4218622;33;20113;-64
2022/08/02 06:15:42;;;;;;;7.28;5.22;;;;;;;;;;4231474;33;20531;-65
2022/08/02 06:18:28;;;;;;;6.80;4.05;;;;;;;;;;4200918;33;21192;-64
2022/08/02 06:21:00;;;;;;;6.43;4.40;;;;;;;;;;4220893;33;20176;-65
2022/08/02 06:23:28;;;;;;;7.72;5.00;;;;;;;;;;4233243;33;20124;-64
2022/08/02 06:25:56;;;;;;;12.25;7.47;;;;;;;;;;4233770;33;20093;-66
2022/08/02 06:28:23;;;;;;;11.18;7.03;;;;;;;;;;4220710;33;20208;-66
2022/08/02 06:30:49;;;;;;;8.98;6.97;;;;;;;;;;4220620;33;20113;-65
2022/08/02 06:33:16;;;;;;;9.30;7.72;;;;;;;;;;4233339;33;20936;-67
2022/08/02 06:35:45;;;;;;;11.75;7.53;;;;;;;;;;4233278;33;20109;-67
2022/08/02 06:38:18;;;;;;;13.07;8.52;;;;;;;;;;4220040;33;20208;-67
2022/08/02 06:40:48;;;;;;;12.98;8.85;;;;;;;;;;4233456;33;20210;-66
2022/08/02 06:43:17;;;;;;;11.20;7.70;;;;;;;;;;4232997;33;20586;-66
2022/08/02 06:45:44;;;;;;;10.35;6.72;;;;;;;;;;4220094;33;20196;-66
2022/08/02 06:48:10;;;;;;;15.00;9.15;;;;;;;;;;4232959;33;20497;-69
2022/08/02 06:50:40;;;;;;;11.93;8.88;;;;;;;;;;4243746;33;20211;-69
2022/08/02 06:53:07;;;;;;;13.13;7.80;;;;;;;;;;4233768;33;20085;-70
2022/08/02 06:55:33;;;;;;;12.95;9.40;;;;;;;;;;4233724;33;20210;-70
2022/08/02 06:57:59;;;;;;;14.87;8.38;;;;;;;;;;4243728;33;20165;-69
2022/08/02 07:00:26;;;;;;;10.55;8.13;;;;;;;;;;4233585;33;20553;-70
2022/08/02 07:02:52;;;;;;;13.23;8.10;;;;;;;;;;4233355;33;20112;-69
2022/08/02 07:05:18;;;;;;;10.90;9.18;;;;;;;;;;4233536;33;20543;-69
2022/08/02 07:07:45;;;;;;;11.98;9.35;;;;;;;;;;4243654;33;20101;-71
2022/08/02 07:10:12;;;;;;;11.30;8.50;;;;;;;;;;4220557;33;20217;-71
2022/08/02 07:12:38;;;;;;;13.75;9.80;;;;;;;;;;4232061;33;20712;-71
2022/08/02 07:15:06;;;;;;;12.10;8.27;;;;;;;;;;4233482;33;20524;-71
2022/08/02 07:17:33;;;;;;;10.00;8.95;;;;;;;;;;4220931;33;20190;-72
2022/08/02 07:19:59;;;;;;;11.60;8.88;;;;;;;;;;4209167;33;20121;-72
2022/08/02 07:22:26;;;;;;;14.52;8.55;;;;;;;;;;4208693;33;20555;-72
2022/08/02 07:24:56;;;;;;;16.55;9.80;;;;;;;;;;4219612;33;20109;-70
2022/08/02 07:27:23;;;;;;;13.20;9.65;;;;;;;;;;4233079;33;20180;-72
2022/08/02 07:29:49;;;;;;;13.65;9.15;;;;;;;;;;4219858;33;20116;-68
2022/08/02 07:32:19;;;;;;;10.98;7.45;;;;;;;;;;4232869;33;20174;-67
2022/08/02 07:34:46;;;;;;;9.48;7.45;;;;;;;;;;4233068;33;20105;-67
2022/08/02 07:37:12;;;;;;;11.15;7.85;;;;;;;;;;4233091;33;20124;-67
2022/08/02 07:39:38;;;;;;;12.27;8.77;;;;;;;;;;4214794;33;20137;-67
2022/08/02 07:42:04;;;;;;;10.55;8.63;;;;;;;;;;4232264;33;20113;-65
2022/08/02 07:44:33;;;;;;;7.50;5.20;;;;;;;;;;4232581;33;20156;-67
2022/08/02 07:47:00;;;;;;;12.98;5.93;;;;;;;;;;4233054;33;20132;-67
2022/08/02 07:49:27;;;;;;;14.48;8.10;;;;;;;;;;4219914;33;20128;-66
2022/08/02 07:51:53;;;;;;;11.80;8.05;;;;;;;;;;4232850;33;20106;-68
2022/08/02 07:54:20;;;;;;;14.18;8.30;;;;;;;;;;4215048;33;20458;-66
2022/08/02 07:56:46;;;;;;;10.68;6.43;;;;;;;;;;4183687;34;20160;-67
2022/08/02 07:59:13;;;;;;;10.00;7.57;;;;;;;;;;4194743;33;20093;-66
2022/08/02 08:01:40;;;;;;;12.13;8.18;;;;;;;;;;4218509;33;20105;-66
2022/08/02 08:04:06;;;;;;;16.05;8.40;;;;;;;;;;4205653;33;20113;-69
2022/08/02 08:06:32;;;;;;;10.27;7.53;;;;;;;;;;4205167;34;20201;-66
2022/08/02 08:08:59;;;;;;;19.08;8.75;;;;;;;;;;4180584;33;20097;-68
2022/08/02 08:11:25;;;;;;;13.50;7.40;;;;;;;;;;4218397;33;20097;-67
2022/08/02 08:13:51;;;;;;;11.18;8.48;;;;;;;;;;4218602;33;20123;-66
2022/08/02 08:16:17;;;;;;;11.68;8.13;;;;;;;;;;4222085;33;20292;-69
2022/08/02 08:18:44;;;;;;;14.55;8.00;;;;;;;;;;4193809;33;20117;-68
2022/08/02 08:21:11;;;;;;;10.95;8.07;;;;;;;;;;4195456;33;20128;-68
2022/08/02 08:23:37;;;;;;;11.02;7.53;;;;;;;;;;4193721;33;20117;-66
2022/08/02 08:26:04;;;;;;;12.82;9.65;;;;;;;;;;4194423;33;20133;-66
2022/08/02 08:28:30;;;;;;;12.48;9.10;;;;;;;;;;4230000;33;20113;-64
2022/08/02 08:30:57;;;;;;;14.87;8.48;;;;;;;;;;4193259;33;20125;-66
2022/08/02 08:33:24;;;;;;;11.30;8.23;;;;;;;;;;4193615;33;20116;-64
2022/08/02 08:35:51;;;;;;;13.15;8.18;;;;;;;;;;4193568;33;20109;-65
2022/08/02 08:38:17;;;;;;;16.30;8.95;;;;;;;;;;4230807;33;20125;-64
2022/08/02 08:40:43;;;;;;;13.45;8.98;;;;;;;;;;4229643;33;20128;-66
2022/08/02 08:43:12;;;;;;;12.85;7.03;;;;;;;;;;4230214;33;20116;-66
2022/08/02 08:45:42;;;;;;;16.42;8.75;;;;;;;;;;4231407;33;20104;-64
2022/08/02 08:48:12;;;;;;;12.68;8.95;;;;;;;;;;4208530;33;20116;-65
2022/08/02 08:50:47;;;;;;;13.57;8.85;;;;;;;;;;4232186;33;20551;-66
2022/08/02 08:53:13;;;;;;;;;;;;;;;;;;4196701;33;20112;-64
2022/08/02 08:55:39;;;;;;;11.70;8.63;;;;;;;;;;4232336;33;20385;-66
2022/08/02 08:58:05;;;;;;;17.92;8.65;;;;;;;;;;4219693;33;20147;-65
2022/08/02 09:00:33;;;;;;;12.10;9.40;;;;;;;;;;4232431;33;20859;-65
2022/08/02 09:03:02;;;;;;;22.92;6.70;;;;;;;;;;4232419;33;20192;-65
2022/08/02 09:05:28;;;;;;;13.10;9.07;;;;;;;;;;4232276;33;20109;-65
2022/08/02 09:07:54;;;;;;;12.45;9.45;;;;;;;;;;4232500;33;20209;-65
2022/08/02 09:10:44;;;;;;;10.25;8.88;;;;;;;;;;4232446;33;20106;-65
2022/08/02 09:13:30;;;;;;;12.63;7.60;;;;;;;;;;4232333;33;20172;-64
2022/08/02 09:15:58;;;;;;;11.23;7.68;;;;;;;;;;4230861;33;20195;-64
2022/08/02 09:18:36;;;;;;;12.20;7.75;;;;;;;;;;4207597;33;20256;-65
2022/08/02 09:21:04;;;;;;;12.68;6.50;;;;;;;;;;4207703;33;20188;-65
2022/08/02 09:23:50;;;;;;;6.82;5.00;;;;;;;;;;4232100;33;20145;-64
2022/08/02 09:26:21;;;;;;;13.90;8.52;;;;;;;;;;4232143;33;20109;-66
2022/08/02 09:28:49;;;;;;;9.75;6.60;;;;;;;;;;4219312;33;20117;-69
2022/08/02 09:31:17;;;;;;;15.68;8.15;;;;;;;;;;4232095;33;20448;-68
2022/08/02 09:33:44;;;;;;;8.45;6.40;;;;;;;;;;4207467;33;20525;-69
2022/08/02 09:36:12;;;;;;;10.57;6.47;;;;;;;;;;4218738;33;20123;-70
2022/08/02 09:38:39;;;;;;;11.23;6.90;;;;;;;;;;4218903;33;20108;-71
2022/08/02 09:41:06;;;;;;;10.88;6.75;;;;;;;;;;4232242;33;20209;-75
2022/08/02 09:43:40;;;;;;;9.52;6.53;;;;;;;;;;4217645;33;20110;-70
2022/08/02 09:46:36;;;;;;;8.33;5.53;;;;;;;;;;4215664;33;20120;-69
2022/08/02 09:49:03;;;;;;;;;;;;;;;;;;4215039;33;20641;-69
2022/08/02 09:51:34;;;;;;;10.82;7.25;;;;;;;;;;4204088;33;19999;-70
2022/08/02 09:54:12;;;;;;;7.60;5.32;;;;;;;;;;4197119;33;20675;-70
2022/08/02 09:56:46;;;;;;;11.38;6.43;;;;;;;;;;4221591;33;20215;-70
2022/08/02 09:59:13;;;;;;;2.67;2.25;;;;;;;;;;4209358;33;20198;-68
2022/08/02 10:01:44;;;;;;;9.13;6.68;;;;;;;;;;4209575;33;20106;-69
2022/08/02 10:04:13;;;;;;;16.17;6.62;;;;;;;;;;4198331;33;20120;-69
2022/08/02 10:06:45;;;;;;;10.80;6.40;;;;;;;;;;4228964;33;20114;-70
2022/08/02 10:09:11;;;;;;;11.48;5.03;;;;;;;;;;4221473;33;20160;-70
2022/08/02 10:11:38;;;;;;;5.62;4.12;;;;;;;;;;4221115;33;20093;-71
2022/08/02 10:14:09;;;;;;;9.73;5.45;;;;;;;;;;4197959;33;20128;-70
2022/08/02 10:16:37;;;;;;;8.25;5.65;;;;;;;;;;4209134;33;20177;-71
2022/08/02 10:19:04;;;;;;;9.45;5.97;;;;;;;;;;4233853;33;20126;-69
2022/08/02 10:21:44;;;;;;;10.02;6.22;;;;;;;;;;4209263;33;20168;-69
2022/08/02 10:24:16;;;;;;;10.10;6.57;;;;;;;;;;4220498;33;20093;-69
2022/08/02 10:26:44;;;;;;;8.90;6.53;;;;;;;;;;4220824;33;20112;-69
2022/08/02 10:29:17;;;;;;;8.90;6.12;;;;;;;;;;4197741;33;20242;-69
2022/08/02 10:31:47;;;;;;;8.35;5.47;;;;;;;;;;4233965;33;20197;-69
2022/08/02 10:34:17;;;;;;;6.05;4.55;;;;;;;;;;4233881;33;20112;-67
2022/08/02 10:36:44;;;;;;;12.43;4.75;;;;;;;;;;4220777;33;20200;-67
2022/08/02 10:39:11;;;;;;;8.52;5.53;;;;;;;;;;4220599;33;20465;-67
2022/08/02 10:41:41;;;;;;;11.32;5.47;;;;;;;;;;4233659;33;20133;-65
2022/08/02 10:44:07;;;;;;;9.20;5.53;;;;;;;;;;4233881;33;20211;-67
2022/08/02 10:46:35;;;;;;;9.75;5.25;;;;;;;;;;4233725;33;20129;-67
2022/08/02 10:49:02;;;;;;;9.50;5.87;;;;;;;;;;4233796;33;20133;-68
2022/08/02 10:51:59;;;;;;;7.30;5.07;;;;;;;;;;4220249;33;20148;-68
2022/08/02 10:54:32;;;;;;;8.75;5.35;;;;;;;;;;4233691;33;20464;-66
2022/08/02 10:56:59;;;;;;;10.02;6.57;;;;;;;;;;4233414;33;20097;-68
2022/08/02 10:59:30;;;;;;;8.95;5.65;;;;;;;;;;4233451;33;20587;-67
2022/08/02 11:02:01;;;;;;;5.60;3.75;;;;;;;;;;4220382;33;20113;-67
2022/08/02 11:04:32;;;;;;;9.32;4.68;;;;;;;;;;4220275;33;20433;-67
2022/08/02 11:07:50;;;;;;;9.13;5.50;;;;;;;;;;4220778;33;20128;-66
2022/08/02 11:10:25;;;;;;;7.95;5.72;;;;;;;;;;4217062;33;20123;-67
2022/08/02 11:13:05;;;;;;;5.62;3.62;;;;;;;;;;4219343;34;20104;-71
2022/08/02 11:15:52;;;;;;;6.85;4.60;;;;;;;;;;4219468;33;20206;-72
2022/08/02 11:18:19;;;;;;;7.15;5.65;;;;;;;;;;4219448;34;20097;-72
2022/08/02 11:20:45;;;;;;;10.20;5.85;;;;;;;;;;4217912;33;20119;-70
2022/08/02 11:23:33;;;;;;;10.93;4.40;;;;;;;;;;4219689;34;20132;-72
2022/08/02 11:25:59;;;;;;;9.50;5.50;;;;;;;;;;4218046;33;20157;-69
2022/08/02 11:28:25;;;;;;;5.30;3.58;;;;;;;;;;4183594;34;20541;-72
2022/08/02 11:30:59;;;;;;;6.25;5.00;;;;;;;;;;4218019;33;20481;-73
2022/08/02 11:33:32;;;;;;;8.48;5.30;;;;;;;;;;4194879;34;20109;-72
2022/08/02 11:36:04;;;;;;;8.23;5.03;;;;;;;;;;4219100;33;20126;-71
2022/08/02 11:38:30;;;;;;;9.48;7.20;;;;;;;;;;4219186;34;20112;-72
2022/08/02 11:40:56;;;;;;;10.20;6.53;;;;;;;;;;4206292;34;20537;-73
2022/08/02 11:43:29;;;;;;;7.47;5.12;;;;;;;;;;4223415;33;20101;-73
2022/08/02 11:45:56;;;;;;;17.33;4.70;;;;;;;;;;4242892;33;20261;-74
2022/08/02 11:48:39;;;;;;;11.68;5.22;;;;;;;;;;4220262;33;20534;-74
2022/08/02 11:51:14;;;;;;;11.80;4.68;;;;;;;;;;4232836;33;20132;-72
2022/08/02 11:53:51;;;;;;;7.97;5.20;;;;;;;;;;4233083;33;20109;-73
2022/08/02 11:56:25;;;;;;;7.25;5.22;;;;;;;;;;4208612;33;20118;-73
2022/08/02 11:59:10;;;;;;;6.20;4.60;;;;;;;;;;4208287;33;20280;-73
2022/08/02 12:01:36;;;;;;;;;;;;;;;;;;4220513;33;20094;-72
2022/08/02 12:04:04;;;;;;;6.20;5.10;;;;;;;;;;4243251;33;19992;-72
2022/08/02 12:06:32;;;;;;;6.97;4.50;;;;;;;;;;4231469;33;20120;-72
2022/08/02 12:09:09;;;;;;;7.68;5.20;;;;;;;;;;4219777;33;20113;-74
2022/08/02 12:11:35;;;;;;;7.62;4.87;;;;;;;;;;4208042;33;20219;-73
2022/08/02 12:14:02;;;;;;;7.32;5.00;;;;;;;;;;4208481;33;20090;-73
2022/08/02 12:19:28;;;;;;;6.72;4.57;;;;;;;;;;4221832;33;20142;-70
2022/08/02 12:22:18;;;;;;;7.72;4.60;;;;;;;;;;4232910;33;20212;-74
2022/08/02 12:24:49;;;;;;;7.55;4.78;;;;;;;;;;4232849;33;20105;-76
2022/08/02 12:27:34;;;;;;;6.32;5.28;;;;;;;;;;4197110;33;20086;-76
2022/08/02 12:30:05;;;;;;;12.00;5.62;;;;;;;;;;4208257;33;20108;-73
2022/08/02 12:32:31;;;;;;;6.72;5.32;;;;;;;;;;4208115;33;20532;-73
2022/08/02 12:35:19;;;;;;;10.52;6.00;;;;;;;;;;4208081;33;20127;-73
2022/08/02 12:37:49;;;;;;;7.28;5.20;;;;;;;;;;4197245;33;20208;-77
2022/08/02 12:40:25;;;;;;;15.38;5.82;;;;;;;;;;4219733;33;20497;-77
2022/08/02 12:42:59;;;;;;;11.35;5.97;;;;;;;;;;4196339;33;20116;-68
2022/08/02 12:45:28;;;;;;;9.60;5.47;;;;;;;;;;4232569;33;20172;-70
2022/08/02 12:47:56;;;;;;;9.30;5.15;;;;;;;;;;4219443;33;20119;-73
2022/08/02 12:50:25;;;;;;;6.35;4.60;;;;;;;;;;4207970;33;20204;-73
2022/08/02 12:53:12;;;;;;;6.32;5.20;;;;;;;;;;4219652;33;20109;-74
2022/08/02 12:55:54;;;;;;;6.45;5.05;;;;;;;;;;4219331;33;20097;-71
2022/08/02 12:58:20;;;;;;;5.47;4.03;;;;;;;;;;4219384;33;20201;-72
2022/08/02 13:01:03;;;;;;;6.75;4.20;;;;;;;;;;4219232;33;20101;-72
2022/08/02 13:03:29;;;;;;;8.98;5.70;;;;;;;;;;4216515;33;20117;-73
2022/08/02 13:05:55;;;;;;;11.55;4.97;;;;;;;;;;4232359;33;20393;-71
2022/08/02 13:08:21;;;;;;;9.02;5.10;;;;;;;;;;4232433;33;20136;-68
2022/08/02 13:10:47;;;;;;;7.70;5.03;;;;;;;;;;4218661;33;20120;-69
2022/08/02 13:13:13;;;;;;;6.70;4.62;;;;;;;;;;4219006;33;20525;-68
2022/08/02 13:15:39;;;;;;;8.98;5.35;;;;;;;;;;4232455;33;20146;-69
2022/08/02 13:18:05;;;;;;;9.48;5.12;;;;;;;;;;4232604;33;20207;-70
2022/08/02 13:20:31;;;;;;;7.05;5.12;;;;;;;;;;4232396;33;20167;-70
2022/08/02 13:22:57;;;;;;;6.50;4.50;;;;;;;;;;4219050;33;20113;-70
2022/08/02 13:25:25;;;;;;;5.68;4.50;;;;;;;;;;4207819;33;20203;-70
2022/08/02 13:27:52;;;;;;;10.68;5.55;;;;;;;;;;4231745;33;20120;-69
2022/08/02 13:30:19;;;;;;;8.57;5.60;;;;;;;;;;4218979;33;20532;-68
2022/08/02 13:32:45;;;;;;;7.50;5.00;;;;;;;;;;4219077;33;20769;-67
2022/08/02 13:35:11;;;;;;;6.55;5.10;;;;;;;;;;4207638;33;20107;-68
2022/08/02 13:37:37;;;;;;;8.77;5.55;;;;;;;;;;4218986;33;20510;-68
2022/08/02 13:40:03;;;;;;;6.22;4.82;;;;;;;;;;4207379;33;20132;-69
2022/08/02 13:42:30;;;;;;;5.50;4.10;;;;;;;;;;4231804;33;20143;-70
2022/08/02 13:44:56;;;;;;;6.25;4.32;;;;;;;;;;4219261;33;20284;-69
2022/08/02 13:47:22;;;;;;;7.28;5.57;;;;;;;;;;4219083;33;20108;-70
2022/08/02 13:49:49;;;;;;;9.25;5.60;;;;;;;;;;4231756;33;20184;-70
2022/08/02 13:52:16;;;;;;;7.70;5.37;;;;;;;;;;4218877;33;20181;-69
2022/08/02 13:54:42;;;;;;;8.38;5.95;;;;;;;;;;4219107;33;20097;-68
2022/08/02 13:57:08;;;;;;;7.72;5.30;;;;;;;;;;4207337;33;20112;-68
2022/08/02 13:59:34;;;;;;;12.48;5.97;;;;;;;;;;4232019;33;20224;-68
2022/08/02 14:02:00;;;;;;;11.25;5.85;;;;;;;;;;4231628;33;20089;-67
2022/08/02 14:04:26;;;;;;;13.13;5.87;;;;;;;;;;4231650;33;20189;-68
2022/08/02 14:06:53;;;;;;;10.23;6.50;;;;;;;;;;4207338;33;20098;-68
2022/08/02 14:09:19;;;;;;;11.10;6.78;;;;;;;;;;4218816;33;20113;-68
2022/08/02 14:11:45;;;;;;;14.85;6.32;;;;;;;;;;4218963;33;20189;-70
2022/08/02 14:14:11;;;;;;;12.23;6.10;;;;;;;;;;4231553;33;20552;-68
2022/08/02 14:16:37;;;;;;;8.32;6.28;;;;;;;;;;4207419;33;20101;-68
2022/08/02 14:19:04;;;;;;;9.05;6.57;;;;;;;;;;4231256;33;20231;-68
2022/08/02 14:21:30;;;;;;;9.55;6.55;;;;;;;;;;4231467;33;20120;-70
2022/08/02 14:23:56;;;;;;;15.98;7.00;;;;;;;;;;4241846;33;20124;-71
2022/08/02 14:26:22;;;;;;;12.23;6.75;;;;;;;;;;4231492;33;20116;-67
2022/08/02 14:28:48;;;;;;;14.63;7.00;;;;;;;;;;4231461;33;20674;-67
2022/08/02 14:31:14;;;;;;;14.85;6.30;;;;;;;;;;4218361;33;20437;-73
2022/08/02 14:33:40;;;;;;;10.85;6.68;;;;;;;;;;4195331;33;20097;-70
2022/08/02 14:36:06;;;;;;;11.88;6.95;;;;;;;;;;4207014;33;20102;-70
2022/08/02 14:38:34;;;;;;;13.15;7.25;;;;;;;;;;4231358;33;20113;-70
2022/08/02 14:41:00;;;;;;;12.55;7.37;;;;;;;;;;4207672;34;20125;-66
2022/08/02 14:46:10;;;;;;;8.45;6.60;;;;;;;;;;4218921;33;20969;-69
2022/08/02 14:48:36;;;;;;;10.40;7.18;;;;;;;;;;4217963;34;20129;-70
2022/08/02 14:51:02;;;;;;;9.25;6.60;;;;;;;;;;4206370;34;20235;-69
2022/08/02 14:53:28;;;;;;;11.52;7.22;;;;;;;;;;4218467;34;20113;-70
2022/08/02 14:55:54;;;;;;;9.07;6.07;;;;;;;;;;4218051;33;20093;-70
2022/08/02 14:58:20;;;;;;;9.88;7.10;;;;;;;;;;4206579;34;20213;-70
2022/08/02 15:00:46;;;;;;;10.05;6.82;;;;;;;;;;4220783;33;20145;-65
2022/08/02 15:03:12;;;;;;;12.20;7.12;;;;;;;;;;4209459;33;20089;-70
2022/08/02 15:05:39;;;;;;;11.38;8.05;;;;;;;;;;4219805;33;20181;-69
2022/08/02 15:08:05;;;;;;;10.57;7.32;;;;;;;;;;4230810;33;20655;-67
2022/08/02 15:10:31;;;;;;;12.52;8.13;;;;;;;;;;4231718;33;20216;-68
2022/08/02 15:12:57;;;;;;;12.00;8.45;;;;;;;;;;4219830;33;20136;-68
2022/08/02 15:15:24;;;;;;;13.23;8.50;;;;;;;;;;4233373;33;20097;-69
2022/08/02 15:17:51;;;;;;;13.35;8.68;;;;;;;;;;4220495;33;20172;-72
2022/08/02 15:20:17;;;;;;;13.20;8.88;;;;;;;;;;4230947;33;20204;-72
2022/08/02 15:22:43;;;;;;;11.23;8.30;;;;;;;;;;4242324;33;20536;-72
2022/08/02 15:25:09;;;;;;;19.50;8.57;;;;;;;;;;4243479;33;20116;-70